Peotone Weather
Peotone-Weather Station Historical Data
Daily Summary for June 02, 2020 Units:  English    Metric   Both
Daily Weekly Monthly Yearly Custom
  High: Low: Average:
Temperature: 93.2 °F 62.8 °F 78.4 °F
Dew Point: 68 °F 50.8 °F 61.3 °F
Humidity: 77% 37.1% 57%
Wind Speed: 16.9mph 3.5mph 10.6mph
Wind Gust: 31mph - -
Wind- - SW
Pressure: 30.02 in 29.79 in -
Precipitation: 0.00 in    
Historical Graphs
 
 
Tabular Data for June 02, 2020
Time Temperature Dew Point Pressure Wind Wind Speed Wind Gust Humidity Rainfall Rate (Hourly) solar
00:04 65.7 °F 51.8 °F 30.02 in South 5.4 mph 10.3 mph 60.7% 0.00 in 0 W/m2
00:09 65.6 °F 51.8 °F 30.02 in South 4.9 mph 10.3 mph 61% 0.00 in 0 W/m2
00:14 65.4 °F 51.6 °F 30.01 in South 6.1 mph 10.3 mph 61% 0.00 in 0 W/m2
00:19 65.4 °F 51.7 °F 30.01 in South 6.1 mph 11.5 mph 61.2% 0.00 in 0 W/m2
00:24 65.4 °F 51.7 °F 30.01 in South 6.8 mph 11.5 mph 61.2% 0.00 in 0 W/m2
00:29 65.5 °F 51.7 °F 30.01 in SSW 4.3 mph 10.3 mph 61% 0.00 in 0 W/m2
00:34 65.4 °F 51.6 °F 30.01 in SSW 4.9 mph 8.1 mph 61% 0.00 in 0 W/m2
00:39 65.4 °F 51.6 °F 30.01 in SSW 5.7 mph 10.3 mph 61% 0.00 in 0 W/m2
00:44 65.3 °F 51.6 °F 30.01 in South 6.4 mph 10.3 mph 61.2% 0.00 in 0 W/m2
00:49 65 °F 51.7 °F 30.01 in SSW 6.9 mph 11.5 mph 62% 0.00 in 0 W/m2
00:54 65.1 °F 51.5 °F 30.01 in SSW 5.3 mph 11.5 mph 61.4% 0.00 in 0 W/m2
00:59 65.1 °F 51.4 °F 30.01 in South 5.8 mph 9.2 mph 61.2% 0.00 in 0 W/m2
01:04 65.1 °F 51.4 °F 30.01 in South 4.7 mph 9.2 mph 61% 0.00 in 0 W/m2
01:09 65 °F 51.3 °F 30.01 in South 5 mph 11.5 mph 61.2% 0.00 in 0 W/m2
01:14 64.8 °F 51.4 °F 30.01 in South 5 mph 11.5 mph 61.7% 0.00 in 0 W/m2
01:19 64.8 °F 51.2 °F 30.01 in South 4.9 mph 10.3 mph 61.3% 0.00 in 0 W/m2
01:24 64.9 °F 51.2 °F 30.00 in SSW 6.3 mph 10.3 mph 61% 0.00 in 0 W/m2
01:29 64.8 °F 51.1 °F 30.00 in South 5 mph 10.3 mph 61.2% 0.00 in 0 W/m2
01:34 64.7 °F 51 °F 30.00 in South 5.2 mph 11.5 mph 61.1% 0.00 in 0 W/m2
01:39 64.6 °F 51.1 °F 30.00 in South 5.6 mph 11.5 mph 61.7% 0.00 in 0 W/m2
01:44 64.5 °F 51 °F 30.00 in South 5.6 mph 11.5 mph 61.5% 0.00 in 0 W/m2
01:49 64.6 °F 51 °F 30.00 in South 4.3 mph 11.5 mph 61.3% 0.00 in 0 W/m2
01:54 64.5 °F 51.1 °F 30.00 in South 5.2 mph 9.2 mph 61.6% 0.00 in 0 W/m2
01:59 64.4 °F 50.9 °F 30.00 in South 3.8 mph 9.2 mph 61.5% 0.00 in 0 W/m2
02:04 64.2 °F 51.1 °F 30.00 in South 4.9 mph 10.3 mph 62.5% 0.00 in 0 W/m2
02:09 64 °F 50.9 °F 29.99 in South 4.7 mph 10.3 mph 62.4% 0.00 in 0 W/m2
02:14 63.9 °F 51.1 °F 29.99 in South 4.8 mph 9.2 mph 63% 0.00 in 0 W/m2
02:19 63.9 °F 51 °F 29.99 in South 4.3 mph 8.1 mph 63% 0.00 in 0 W/m2
02:24 63.8 °F 51 °F 29.99 in South 4.1 mph 8.1 mph 63% 0.00 in 0 W/m2
02:29 63.6 °F 51 °F 29.99 in South 3.5 mph 8.1 mph 63.5% 0.00 in 0 W/m2
02:34 63.5 °F 50.8 °F 29.99 in South 4 mph 8.1 mph 63.3% 0.00 in 0 W/m2
02:39 63.5 °F 51.1 °F 29.99 in South 5.1 mph 9.2 mph 64% 0.00 in 0 W/m2
02:44 63.4 °F 51 °F 29.99 in South 4.1 mph 9.2 mph 64% 0.00 in 0 W/m2
02:49 63.3 °F 51.1 °F 29.99 in South 4.8 mph 8.1 mph 64.4% 0.00 in 0 W/m2
02:54 63.3 °F 51.1 °F 29.99 in South 4.7 mph 8.1 mph 64.4% 0.00 in 0 W/m2
02:59 63.3 °F 51.1 °F 29.99 in South 5.6 mph 8.1 mph 64.5% 0.00 in 0 W/m2
03:04 63.2 °F 51.2 °F 29.98 in South 4.4 mph 9.2 mph 65% 0.00 in 0 W/m2
03:09 63.2 °F 51.2 °F 29.98 in South 4.4 mph 9.2 mph 65% 0.00 in 0 W/m2
03:14 63.2 °F 51.2 °F 29.98 in SSW 5.4 mph 8.1 mph 65% 0.00 in 0 W/m2
03:19 63.2 °F 51.2 °F 29.98 in SSW 5.9 mph 8.1 mph 65% 0.00 in 0 W/m2
03:24 63.1 °F 51.4 °F 29.98 in SSW 5.4 mph 10.3 mph 65.5% 0.00 in 0 W/m2
03:29 63 °F 51.5 °F 29.98 in SSW 6.2 mph 10.3 mph 66% 0.00 in 0 W/m2
03:34 62.9 °F 51.5 °F 29.98 in SSW 6.4 mph 10.3 mph 66.3% 0.00 in 0 W/m2
03:39 62.9 °F 51.8 °F 29.97 in SSW 6.8 mph 9.2 mph 67% 0.00 in 0 W/m2
03:44 62.8 °F 51.9 °F 29.97 in SSW 6 mph 10.3 mph 67.5% 0.00 in 0 W/m2
03:49 62.8 °F 52.1 °F 29.97 in SSW 6.5 mph 10.3 mph 68% 0.00 in 0 W/m2
03:54 62.9 °F 52.2 °F 29.97 in SSW 7.3 mph 11.5 mph 68% 0.00 in 0 W/m2
03:59 62.9 °F 52.2 °F 29.97 in SSW 6.7 mph 11.5 mph 68.1% 0.00 in 0 W/m2
04:04 62.8 °F 52.5 °F 29.97 in SSW 7.4 mph 12.6 mph 68.8% 0.00 in 0 W/m2
04:09 63 °F 52.6 °F 29.97 in SSW 7.9 mph 12.6 mph 68.8% 0.00 in 0 W/m2
04:14 63 °F 52.7 °F 29.97 in SSW 6.5 mph 12.6 mph 68.9% 0.00 in 0 W/m2
04:19 63.1 °F 52.8 °F 29.96 in SSW 7.2 mph 11.5 mph 69% 0.00 in 0 W/m2
04:24 63.2 °F 52.9 °F 29.96 in SSW 7.8 mph 12.6 mph 69% 0.00 in 0 W/m2
04:29 63.1 °F 53.2 °F 29.96 in SSW 8.1 mph 12.6 mph 69.9% 0.00 in 0 W/m2
04:34 63.1 °F 53.2 °F 29.96 in SSW 9.2 mph 13.8 mph 70% 0.00 in 0 W/m2
04:39 63.1 °F 53.5 °F 29.96 in SSW 8.4 mph 13.8 mph 70.7% 0.00 in 0 W/m2
04:44 63.1 °F 53.6 °F 29.96 in SSW 8.4 mph 13.8 mph 71% 0.00 in 0 W/m2
04:49 63.2 °F 53.7 °F 29.96 in SSW 8.6 mph 13.8 mph 71% 0.00 in 0 W/m2
04:54 63.3 °F 53.7 °F 29.96 in SSW 7.6 mph 12.6 mph 71% 0.00 in 0 W/m2
04:59 63.1 °F 53.9 °F 29.96 in SSW 6.9 mph 11.5 mph 71.9% 0.00 in 0 W/m2
05:04 63 °F 54.1 °F 29.96 in SSW 7.3 mph 11.5 mph 72.7% 0.00 in 0 W/m2
05:09 62.9 °F 54.1 °F 29.96 in SSW 6.8 mph 11.5 mph 73% 0.00 in 0 W/m2
05:14 63 °F 54.5 °F 29.96 in SSW 6.1 mph 10.3 mph 73.8% 0.00 in 0 W/m2
05:19 63 °F 54.6 °F 29.96 in SSW 6.1 mph 11.5 mph 74% 0.00 in 0 W/m2
05:24 62.9 °F 54.6 °F 29.96 in SSW 6.2 mph 11.5 mph 74.3% 0.00 in 0 W/m2
05:29 62.9 °F 54.9 °F 29.96 in SSW 6.5 mph 11.5 mph 75% 0.00 in 5 W/m2
05:34 63 °F 55 °F 29.95 in SSW 7 mph 11.5 mph 75% 0.00 in 9 W/m2
05:39 63.1 °F 55.1 °F 29.96 in SSW 6.9 mph 10.3 mph 75% 0.00 in 11 W/m2
05:44 63.1 °F 55.5 °F 29.96 in SSW 7.1 mph 10.3 mph 76% 0.00 in 12 W/m2
05:49 63.2 °F 55.6 °F 29.96 in SSW 6.8 mph 11.5 mph 76% 0.00 in 14 W/m2
05:54 63.3 °F 55.7 °F 29.96 in SSW 7.4 mph 11.5 mph 76% 0.00 in 16 W/m2
05:59 63.4 °F 55.7 °F 29.96 in SSW 8.4 mph 12.6 mph 76.1% 0.00 in 18 W/m2
06:04 63.5 °F 56.1 °F 29.96 in SSW 7.7 mph 12.6 mph 77% 0.00 in 21 W/m2
06:09 63.7 °F 56.3 °F 29.96 in SSW 8.5 mph 11.5 mph 77% 0.00 in 25 W/m2
06:14 63.9 °F 56.6 °F 29.96 in SSW 10.3 mph 13.8 mph 77% 0.00 in 32 W/m2
06:19 64.2 °F 56.9 °F 29.96 in SSW 10.5 mph 16.1 mph 77% 0.00 in 47 W/m2
06:24 64.5 °F 57.2 °F 29.96 in SSW 9.6 mph 16.1 mph 77% 0.00 in 54 W/m2
06:29 64.8 °F 57.2 °F 29.96 in SSW 10.2 mph 17.2 mph 76.3% 0.00 in 84 W/m2
06:34 65 °F 57.4 °F 29.96 in SSW 11.1 mph 17.2 mph 76.3% 0.00 in 86 W/m2
06:39 65.3 °F 57.7 °F 29.96 in SSW 10.8 mph 16.1 mph 76.6% 0.00 in 142 W/m2
06:44 65.6 °F 57.9 °F 29.96 in SSW 10.3 mph 16.1 mph 76.2% 0.00 in 153 W/m2
06:49 65.9 °F 58.2 °F 29.96 in SSW 11.4 mph 17.2 mph 76.2% 0.00 in 178 W/m2
06:54 66.3 °F 58.5 °F 29.96 in SSW 10 mph 17.2 mph 76% 0.00 in 195 W/m2
06:59 66.7 °F 58.9 °F 29.96 in SSW 10.7 mph 16.1 mph 76% 0.00 in 209 W/m2
07:04 67.1 °F 59 °F 29.96 in SSW 10.4 mph 16.1 mph 75.4% 0.00 in 227 W/m2
07:09 67.6 °F 59.4 °F 29.96 in SSW 11.1 mph 17.2 mph 75% 0.00 in 243 W/m2
07:14 67.9 °F 59.6 °F 29.96 in SW 11.5 mph 19.5 mph 74.9% 0.00 in 258 W/m2
07:19 68.3 °F 59.7 °F 29.96 in SW 12.4 mph 19.5 mph 74% 0.00 in 272 W/m2
07:24 68.6 °F 60 °F 29.96 in SSW 12.9 mph 20.7 mph 74% 0.00 in 288 W/m2
07:29 68.8 °F 60.1 °F 29.95 in SSW 13.7 mph 20.7 mph 73.7% 0.00 in 304 W/m2
07:34 69.2 °F 60.2 °F 29.95 in SW 13.1 mph 20.7 mph 73.2% 0.00 in 320 W/m2
07:39 69.4 °F 60.4 °F 29.95 in SW 13 mph 19.5 mph 73% 0.00 in 338 W/m2
07:44 69.7 °F 60.7 °F 29.95 in SW 12.5 mph 20.7 mph 73% 0.00 in 353 W/m2
07:49 70.1 °F 60.7 °F 29.95 in SW 11 mph 20.7 mph 72.2% 0.00 in 369 W/m2
07:54 70.5 °F 61.1 °F 29.95 in SW 12.4 mph 20.7 mph 72% 0.00 in 381 W/m2
07:59 70.9 °F 61.3 °F 29.95 in SW 13.7 mph 27.6 mph 71.8% 0.00 in 399 W/m2
08:04 71.2 °F 61.5 °F 29.95 in SW 13.9 mph 27.6 mph 71.5% 0.00 in 415 W/m2
08:09 71.5 °F 61.7 °F 29.95 in SW 11.9 mph 20.7 mph 71.3% 0.00 in 431 W/m2
08:14 71.7 °F 61.8 °F 29.95 in SW 13.3 mph 20.7 mph 70.9% 0.00 in 448 W/m2
08:19 72.1 °F 62.1 °F 29.95 in SW 9.8 mph 20.7 mph 70.9% 0.00 in 462 W/m2
08:24 72.6 °F 62.6 °F 29.95 in SSW 13.2 mph 20.7 mph 70.8% 0.00 in 475 W/m2
08:29 73 °F 62.7 °F 29.95 in SW 13.3 mph 20.7 mph 70.2% 0.00 in 492 W/m2
08:34 73.4 °F 62.7 °F 29.95 in SW 13.6 mph 23 mph 69.1% 0.00 in 508 W/m2
08:39 73.6 °F 62.8 °F 29.94 in SW 13 mph 25.3 mph 68.8% 0.00 in 522 W/m2
08:44 73.9 °F 62.8 °F 29.95 in SW 13.3 mph 25.3 mph 68.3% 0.00 in 540 W/m2
08:49 74.2 °F 63.1 °F 29.95 in SSW 12.4 mph 24.1 mph 68.2% 0.00 in 554 W/m2
08:54 74.9 °F 63.6 °F 29.94 in SW 13.1 mph 20.7 mph 67.9% 0.00 in 566 W/m2
08:59 75.3 °F 63.5 °F 29.94 in SW 12.1 mph 21.9 mph 66.8% 0.00 in 584 W/m2
09:04 75.4 °F 63.6 °F 29.94 in SW 13.6 mph 21.9 mph 66.6% 0.00 in 596 W/m2
09:09 75.7 °F 63.7 °F 29.94 in SW 11.7 mph 20.7 mph 66.3% 0.00 in 608 W/m2
09:14 76.1 °F 63.9 °F 29.94 in SW 13.1 mph 23 mph 65.8% 0.00 in 622 W/m2
09:19 76.6 °F 64.1 °F 29.94 in SW 12.7 mph 23 mph 65.2% 0.00 in 635 W/m2
09:24 77 °F 64.1 °F 29.94 in SW 15.3 mph 24.1 mph 64.5% 0.00 in 650 W/m2
09:29 77.5 °F 64.2 °F 29.94 in SW 11.4 mph 24.1 mph 63.8% 0.00 in 663 W/m2
09:34 77.8 °F 64.3 °F 29.93 in SW 13.5 mph 20.7 mph 63.2% 0.00 in 673 W/m2
09:39 78.2 °F 64.6 °F 29.93 in SW 14.1 mph 23 mph 63.2% 0.00 in 686 W/m2
09:44 78.8 °F 65.1 °F 29.93 in SW 11.3 mph 23 mph 63% 0.00 in 698 W/m2
09:49 78.9 °F 64.7 °F 29.93 in SW 15.4 mph 24.1 mph 61.7% 0.00 in 712 W/m2
09:54 79.1 °F 65.1 °F 29.93 in SW 15.2 mph 24.1 mph 62.4% 0.00 in 721 W/m2
09:59 79.2 °F 64.6 °F 29.93 in SW 15.5 mph 26.4 mph 61% 0.00 in 735 W/m2
10:04 79.4 °F 65 °F 29.93 in SW 13.6 mph 26.4 mph 61.4% 0.00 in 747 W/m2
10:09 80.1 °F 65.3 °F 29.93 in SW 14.9 mph 23 mph 60.7% 0.00 in 758 W/m2
10:14 80.3 °F 65 °F 29.92 in SW 12.1 mph 23 mph 59.7% 0.00 in 768 W/m2
10:19 80.3 °F 65.1 °F 29.92 in SW 15.3 mph 21.9 mph 59.8% 0.00 in 779 W/m2
10:24 80.6 °F 65.5 °F 29.92 in SW 11.3 mph 21.9 mph 60.2% 0.00 in 789 W/m2
10:29 81.2 °F 65.6 °F 29.92 in SW 12.2 mph 17.2 mph 59.2% 0.00 in 802 W/m2
10:34 81.5 °F 65.3 °F 29.92 in SW 14.2 mph 21.9 mph 58% 0.00 in 812 W/m2
10:39 81.6 °F 65.7 °F 29.92 in SSW 14.1 mph 23 mph 58.5% 0.00 in 817 W/m2
10:44 82.3 °F 66 °F 29.92 in SW 11.8 mph 23 mph 57.9% 0.00 in 828 W/m2
10:49 82.7 °F 65.6 °F 29.92 in SW 14.6 mph 21.9 mph 56.3% 0.00 in 837 W/m2
10:54 82.5 °F 65.5 °F 29.92 in WSW 13.1 mph 21.9 mph 56.4% 0.00 in 847 W/m2
10:59 83 °F 66 °F 29.91 in SW 12.4 mph 20.7 mph 56.7% 0.00 in 856 W/m2
11:04 83.3 °F 66.1 °F 29.91 in SW 12.8 mph 21.9 mph 56.2% 0.00 in 863 W/m2
11:09 83.4 °F 65.6 °F 29.91 in SW 13.7 mph 21.9 mph 55.1% 0.00 in 868 W/m2
11:14 83.5 °F 65.9 °F 29.91 in SW 9.8 mph 20.7 mph 55.5% 0.00 in 877 W/m2
11:19 84 °F 66.5 °F 29.91 in SW 11 mph 20.7 mph 55.9% 0.00 in 881 W/m2
11:24 84.5 °F 66.6 °F 29.91 in SW 11.3 mph 17.2 mph 55.2% 0.00 in 891 W/m2
11:29 84.3 °F 66 °F 29.91 in SW 14.6 mph 19.5 mph 54.3% 0.00 in 898 W/m2
11:34 84.3 °F 66.3 °F 29.91 in SW 12.3 mph 19.5 mph 54.7% 0.00 in 907 W/m2
11:39 84.8 °F 66.5 °F 29.91 in SW 12.4 mph 19.5 mph 54.2% 0.00 in 909 W/m2
11:44 84.7 °F 66 °F 29.90 in WSW 13.6 mph 19.5 mph 53.7% 0.00 in 916 W/m2
11:49 84.7 °F 66.2 °F 29.90 in SW 12.5 mph 19.5 mph 53.9% 0.00 in 919 W/m2
11:54 85.3 °F 66.3 °F 29.90 in SW 12.2 mph 19.5 mph 53.2% 0.00 in 926 W/m2
11:59 85.4 °F 66.2 °F 29.90 in WSW 14.4 mph 20.7 mph 52.9% 0.00 in 928 W/m2
12:04 85.2 °F 66.3 °F 29.90 in SW 9.6 mph 20.7 mph 53.2% 0.00 in 935 W/m2
12:09 85.9 °F 67.1 °F 29.90 in SW 11.6 mph 25.3 mph 53.5% 0.00 in 937 W/m2
12:14 86.1 °F 66.7 °F 29.90 in SSW 14.5 mph 25.3 mph 52.5% 0.00 in 942 W/m2
12:19 86.5 °F 67 °F 29.89 in SW 11.7 mph 25.3 mph 52.5% 0.00 in 944 W/m2
12:24 86.9 °F 67.1 °F 29.89 in SW 11.6 mph 19.5 mph 51.9% 0.00 in 944 W/m2
12:29 87.1 °F 66.9 °F 29.89 in SW 13.5 mph 25.3 mph 51.3% 0.00 in 949 W/m2
12:34 86.9 °F 66.4 °F 29.89 in SW 13.3 mph 25.3 mph 50.5% 0.00 in 949 W/m2
12:39 86.6 °F 66.4 °F 29.89 in SW 12.4 mph 23 mph 51.2% 0.00 in 953 W/m2
12:44 87 °F 66.9 °F 29.88 in SW 12.2 mph 20.7 mph 51.4% 0.00 in 954 W/m2
12:49 87.9 °F 67.1 °F 29.88 in SW 11.8 mph 20.7 mph 50.4% 0.00 in 956 W/m2
12:54 88.2 °F 67.5 °F 29.88 in WSW 13.5 mph 20.7 mph 50.5% 0.00 in 956 W/m2
12:59 88.4 °F 67.5 °F 29.88 in SW 12.2 mph 20.7 mph 50.1% 0.00 in 958 W/m2
13:04 88.8 °F 67.5 °F 29.88 in SW 12 mph 20.7 mph 49.5% 0.00 in 956 W/m2
13:09 89.1 °F 67.3 °F 29.88 in SW 12.4 mph 19.5 mph 48.8% 0.00 in 956 W/m2
13:14 89.1 °F 67.1 °F 29.88 in SW 12.4 mph 18.4 mph 48.4% 0.00 in 956 W/m2
13:19 89.1 °F 66.7 °F 29.87 in SW 16.4 mph 25.3 mph 47.8% 0.00 in 954 W/m2
13:24 89.2 °F 66.8 °F 29.87 in SW 12.1 mph 25.3 mph 47.7% 0.00 in 954 W/m2
13:29 89.7 °F 67.4 °F 29.87 in SW 12.9 mph 19.5 mph 47.9% 0.00 in 951 W/m2
13:34 90.4 °F 67.8 °F 29.87 in SW 11.8 mph 19.5 mph 47.5% 0.00 in 946 W/m2
13:39 90.6 °F 67.4 °F 29.86 in SW 11.7 mph 19.5 mph 46.6% 0.00 in 944 W/m2
13:44 90.6 °F 67.7 °F 29.87 in SW 14.3 mph 21.9 mph 47.1% 0.00 in 930 W/m2
13:49 90.4 °F 67.2 °F 29.86 in SW 11.3 mph 21.9 mph 46.7% 0.00 in 939 W/m2
13:54 91 °F 68 °F 29.86 in SW 10.7 mph 20.7 mph 47% 0.00 in 926 W/m2
13:59 91.3 °F 67.2 °F 29.86 in SW 11 mph 19.5 mph 45.4% 0.00 in 926 W/m2
14:04 91.2 °F 66.8 °F 29.86 in SW 11.6 mph 25.3 mph 44.9% 0.00 in 919 W/m2
14:09 91.1 °F 66.5 °F 29.86 in SW 14.9 mph 25.3 mph 44.5% 0.00 in 895 W/m2
14:14 91.3 °F 66.7 °F 29.85 in SW 11.6 mph 21.9 mph 44.4% 0.00 in 907 W/m2
14:19 91.2 °F 66.5 °F 29.85 in SW 13.3 mph 21.9 mph 44.3% 0.00 in 898 W/m2
14:24 91 °F 66.7 °F 29.85 in SW 12.9 mph 21.9 mph 45% 0.00 in 896 W/m2
14:29 91.3 °F 66.6 °F 29.85 in SW 14.5 mph 23 mph 44.4% 0.00 in 891 W/m2
14:34 91.3 °F 66.9 °F 29.85 in SW 12.1 mph 23 mph 44.8% 0.00 in 888 W/m2
14:39 91.7 °F 66.8 °F 29.85 in SW 14.3 mph 21.9 mph 44.1% 0.00 in 888 W/m2
14:44 92.3 °F 67.2 °F 29.85 in SSW 16.8 mph 23 mph 43.9% 0.00 in 872 W/m2
14:49 92.4 °F 66.6 °F 29.85 in SW 12.8 mph 23 mph 43% 0.00 in 863 W/m2
14:54 92.1 °F 66.4 °F 29.85 in SW 14.3 mph 20.7 mph 43% 0.00 in 858 W/m2
14:59 92.1 °F 66.1 °F 29.85 in SW 14.1 mph 20.7 mph 42.6% 0.00 in 842 W/m2
15:04 92.4 °F 66.3 °F 29.84 in SW 13.2 mph 20.7 mph 42.5% 0.00 in 837 W/m2
15:09 92.5 °F 66.2 °F 29.84 in SW 15.9 mph 31 mph 42.2% 0.00 in 833 W/m2
15:14 92.2 °F 65.3 °F 29.84 in SW 16.6 mph 31 mph 41.3% 0.00 in 826 W/m2
15:19 91.7 °F 64.9 °F 29.84 in SW 16.9 mph 25.3 mph 41.3% 0.00 in 814 W/m2
15:24 91.8 °F 65.9 °F 29.84 in SW 14.5 mph 25.3 mph 42.6% 0.00 in 802 W/m2
15:29 92.2 °F 65.2 °F 29.84 in SW 14.9 mph 24.1 mph 41.1% 0.00 in 793 W/m2
15:34 92.4 °F 65.3 °F 29.84 in SW 13.9 mph 24.1 mph 41% 0.00 in 786 W/m2
15:39 92.3 °F 65.9 °F 29.84 in SW 12.7 mph 24.1 mph 42% 0.00 in 779 W/m2
15:44 92.6 °F 65.1 °F 29.84 in SW 13.9 mph 21.9 mph 40.5% 0.00 in 765 W/m2
15:49 92.9 °F 65.3 °F 29.84 in SW 13 mph 21.9 mph 40.5% 0.00 in 740 W/m2
15:54 92.8 °F 65.3 °F 29.84 in SW 15.8 mph 26.4 mph 40.5% 0.00 in 728 W/m2
15:59 93 °F 65.5 °F 29.83 in SSW 15.2 mph 26.4 mph 40.5% 0.00 in 719 W/m2
16:04 93 °F 64.9 °F 29.83 in SW 14.2 mph 21.9 mph 39.6% 0.00 in 710 W/m2
16:09 93.2 °F 64.9 °F 29.83 in SW 14.4 mph 23 mph 39.5% 0.00 in 700 W/m2
16:14 93 °F 64.6 °F 29.83 in SW 14.6 mph 23 mph 39.3% 0.00 in 687 W/m2
16:19 92.9 °F 64.4 °F 29.83 in SW 14.4 mph 24.1 mph 39.1% 0.00 in 675 W/m2
16:24 92.9 °F 62.9 °F 29.83 in SW 15.5 mph 24.1 mph 37.1% 0.00 in 663 W/m2
16:29 93 °F 63.4 °F 29.83 in SW 16.9 mph 24.1 mph 37.6% 0.00 in 645 W/m2
16:34 93 °F 63 °F 29.83 in SW 16.1 mph 27.6 mph 37.2% 0.00 in 631 W/m2
16:39 93 °F 63.7 °F 29.83 in SW 14.5 mph 27.6 mph 38.2% 0.00 in 622 W/m2
16:44 92.9 °F 64.3 °F 29.83 in SW 14.5 mph 24.1 mph 39% 0.00 in 605 W/m2
16:49 93.1 °F 63.7 °F 29.83 in SW 15.3 mph 19.5 mph 37.9% 0.00 in 592 W/m2
16:54 92.8 °F 63.2 °F 29.83 in SW 14.9 mph 23 mph 37.5% 0.00 in 582 W/m2
16:59 92.7 °F 63.2 °F 29.83 in SW 13.5 mph 23 mph 37.8% 0.00 in 563 W/m2
17:04 92.6 °F 63.9 °F 29.83 in SW 14.1 mph 23 mph 38.8% 0.00 in 548 W/m2
17:09 92.6 °F 64.4 °F 29.82 in SW 13.6 mph 24.1 mph 39.5% 0.00 in 534 W/m2
17:14 92.8 °F 65.1 °F 29.82 in SW 14.4 mph 24.1 mph 40.2% 0.00 in 517 W/m2
17:19 92.8 °F 64.6 °F 29.82 in SW 14 mph 21.9 mph 39.6% 0.00 in 496 W/m2
17:24 92.5 °F 64.4 °F 29.82 in SSW 13.4 mph 21.9 mph 39.6% 0.00 in 494 W/m2
17:29 92.5 °F 64.6 °F 29.82 in SW 12.3 mph 21.9 mph 39.8% 0.00 in 476 W/m2
17:34 92.3 °F 64.5 °F 29.82 in SW 15.9 mph 27.6 mph 40% 0.00 in 459 W/m2
17:39 92.2 °F 64.4 °F 29.82 in SW 15.6 mph 27.6 mph 40% 0.00 in 441 W/m2
17:44 92.3 °F 64.2 °F 29.82 in SW 15.4 mph 25.3 mph 39.7% 0.00 in 429 W/m2
17:49 92.1 °F 64.3 °F 29.81 in SW 16 mph 25.3 mph 40% 0.00 in 413 W/m2
17:54 91.8 °F 64.1 °F 29.81 in SW 13.4 mph 25.3 mph 40.1% 0.00 in 388 W/m2
17:59 91.8 °F 63.9 °F 29.82 in SW 12.2 mph 21.9 mph 39.9% 0.00 in 376 W/m2
18:04 91.5 °F 63.9 °F 29.82 in SW 12.6 mph 21.9 mph 40.1% 0.00 in 355 W/m2
18:09 91.5 °F 63.8 °F 29.81 in SW 13.2 mph 23 mph 40.1% 0.00 in 346 W/m2
18:14 91.5 °F 64.1 °F 29.81 in SW 15.3 mph 23 mph 40.5% 0.00 in 334 W/m2
18:19 91.1 °F 63.7 °F 29.81 in SW 15 mph 24.1 mph 40.4% 0.00 in 311 W/m2
18:24 90.8 °F 63.9 °F 29.81 in SW 13.9 mph 25.3 mph 41% 0.00 in 281 W/m2
18:29 90.6 °F 64.2 °F 29.81 in SW 13.6 mph 25.3 mph 41.8% 0.00 in 281 W/m2
18:34 90.4 °F 64.2 °F 29.81 in SW 13.1 mph 21.9 mph 42.1% 0.00 in 265 W/m2
18:39 90 °F 64.1 °F 29.81 in SW 13.4 mph 25.3 mph 42.3% 0.00 in 229 W/m2
18:44 89.7 °F 64.5 °F 29.81 in SSW 13.1 mph 25.3 mph 43.4% 0.00 in 91 W/m2
18:49 89.4 °F 64 °F 29.81 in SW 11.9 mph 21.9 mph 43% 0.00 in 60 W/m2
18:54 89.2 °F 64.4 °F 29.81 in SW 12.7 mph 20.7 mph 43.8% 0.00 in 53 W/m2
18:59 89.1 °F 64.4 °F 29.81 in SW 13.8 mph 20.7 mph 44.1% 0.00 in 42 W/m2
19:04 88.9 °F 64.8 °F 29.81 in SW 10.3 mph 19.5 mph 45% 0.00 in 40 W/m2
19:09 88.6 °F 64.9 °F 29.81 in SW 10.8 mph 17.2 mph 45.6% 0.00 in 37 W/m2
19:14 88.4 °F 65.3 °F 29.81 in SW 9.8 mph 17.2 mph 46.4% 0.00 in 35 W/m2
19:19 88.2 °F 66 °F 29.81 in SW 11.9 mph 17.2 mph 47.9% 0.00 in 33 W/m2
19:24 87.9 °F 65.5 °F 29.80 in SW 11 mph 17.2 mph 47.5% 0.00 in 32 W/m2
19:29 87.7 °F 65.2 °F 29.81 in SW 10.9 mph 19.5 mph 47.3% 0.00 in 30 W/m2
19:34 87.5 °F 65.1 °F 29.80 in SW 12.2 mph 19.5 mph 47.5% 0.00 in 26 W/m2
19:39 87.2 °F 65.3 °F 29.80 in SW 10.9 mph 17.2 mph 48.2% 0.00 in 26 W/m2
19:44 86.9 °F 65.5 °F 29.80 in SW 9.3 mph 14.9 mph 48.9% 0.00 in 23 W/m2
19:49 86.7 °F 65.2 °F 29.80 in SW 10 mph 16.1 mph 49% 0.00 in 19 W/m2
19:54 86.4 °F 65 °F 29.79 in SW 9.8 mph 18.4 mph 49% 0.00 in 18 W/m2
19:59 86.1 °F 64.7 °F 29.79 in SW 8.9 mph 18.4 mph 49% 0.00 in 14 W/m2
20:04 85.8 °F 64.6 °F 29.80 in SW 9.8 mph 19.5 mph 49.4% 0.00 in 12 W/m2
20:09 85.6 °F 64.7 °F 29.80 in SW 9.2 mph 19.5 mph 49.8% 0.00 in 7 W/m2
20:14 85.3 °F 64.6 °F 29.79 in SW 9.9 mph 17.2 mph 50.1% 0.00 in 0 W/m2
20:19 85 °F 64.8 °F 29.79 in SW 10.9 mph 17.2 mph 51% 0.00 in 0 W/m2
20:24 84.7 °F 64.8 °F 29.79 in SW 9.6 mph 17.2 mph 51.4% 0.00 in 0 W/m2
20:29 84.5 °F 64.9 °F 29.79 in SW 10.2 mph 16.1 mph 52% 0.00 in 0 W/m2
20:34 84.2 °F 65.2 °F 29.79 in SW 10.8 mph 16.1 mph 52.8% 0.00 in 0 W/m2
20:39 83.9 °F 65.3 °F 29.80 in SW 8.8 mph 16.1 mph 53.7% 0.00 in 0 W/m2
20:44 83.6 °F 65.4 °F 29.80 in SW 8.7 mph 14.9 mph 54.3% 0.00 in 0 W/m2
20:49 83.2 °F 65.5 °F 29.81 in SSW 8.7 mph 12.6 mph 55.3% 0.00 in 0 W/m2
20:54 82.9 °F 65.6 °F 29.81 in SW 8.5 mph 12.6 mph 56% 0.00 in 0 W/m2
20:59 82.6 °F 65.6 °F 29.82 in SW 7.5 mph 12.6 mph 56.4% 0.00 in 0 W/m2
21:04 82.5 °F 65.7 °F 29.82 in SW 8.6 mph 14.9 mph 57% 0.00 in 0 W/m2
21:09 82.3 °F 65.6 °F 29.83 in SW 7.9 mph 14.9 mph 57% 0.00 in 0 W/m2
21:14 82.1 °F 65.7 °F 29.83 in SW 6.8 mph 12.6 mph 57.5% 0.00 in 0 W/m2
21:19 81.9 °F 65.7 °F 29.84 in SW 6.3 mph 10.3 mph 58% 0.00 in 0 W/m2
21:24 81.8 °F 65.6 °F 29.84 in SW 7.5 mph 11.5 mph 58% 0.00 in 0 W/m2
21:29 81.7 °F 65.7 °F 29.83 in SW 8.1 mph 13.8 mph 58.4% 0.00 in 0 W/m2
21:34 81.6 °F 65.9 °F 29.84 in SW 8.3 mph 13.8 mph 59% 0.00 in 0 W/m2
21:39 81.5 °F 65.8 °F 29.84 in SW 7.7 mph 13.8 mph 59% 0.00 in 0 W/m2
21:44 81.4 °F 65.8 °F 29.84 in SW 10.8 mph 14.9 mph 59.2% 0.00 in 0 W/m2
21:49 81.4 °F 66 °F 29.85 in SW 10.1 mph 14.9 mph 59.7% 0.00 in 0 W/m2
21:54 81.3 °F 66.1 °F 29.85 in SW 10.1 mph 16.1 mph 60% 0.00 in 0 W/m2
21:59 81.2 °F 66 °F 29.84 in SW 9.8 mph 16.1 mph 60% 0.00 in 0 W/m2
22:04 81 °F 65.9 °F 29.84 in SW 8.4 mph 13.8 mph 60.2% 0.00 in 0 W/m2
22:09 80.7 °F 66 °F 29.84 in SW 8.6 mph 13.8 mph 61% 0.00 in 0 W/m2
22:14 80.4 °F 66.2 °F 29.84 in SW 8.9 mph 14.9 mph 61.9% 0.00 in 0 W/m2
22:19 80.2 °F 66 °F 29.84 in SSW 9.1 mph 14.9 mph 62% 0.00 in 0 W/m2
22:24 79.9 °F 66.2 °F 29.84 in SW 8.5 mph 13.8 mph 63% 0.00 in 0 W/m2
22:29 79.6 °F 65.9 °F 29.84 in SW 9.1 mph 13.8 mph 63% 0.00 in 0 W/m2
22:34 79.5 °F 65.8 °F 29.84 in SW 9.1 mph 16.1 mph 63% 0.00 in 0 W/m2
22:39 79.5 °F 65.8 °F 29.84 in SW 9.5 mph 18.4 mph 63% 0.00 in 0 W/m2
22:44 79.5 °F 65.8 °F 29.85 in SW 10.2 mph 18.4 mph 63% 0.00 in 0 W/m2
22:49 79.5 °F 65.8 °F 29.85 in SW 9.6 mph 16.1 mph 63% 0.00 in 0 W/m2
22:52 79.4 °F 65.7 °F 29.85 in SW 10.5 mph 14.9 mph 63% 0.00 in 0 W/m2
Peotne Weather
Compliments of Weather Underground - 4 mb